sensor_id;sensor_type;location;lat;lon;timestamp;P1;durP1;ratioP1;P2;durP2;ratioP2
38611;SDS011;24368;52.156;20.788;2023-02-01T00:03:55;3.80;;;3.40;;
38611;SDS011;24368;52.156;20.788;2023-02-01T00:08:57;3.90;;;3.60;;
38611;SDS011;24368;52.156;20.788;2023-02-01T00:13:58;4.30;;;3.30;;
38611;SDS011;24368;52.156;20.788;2023-02-01T00:19:02;2.80;;;2.60;;
38611;SDS011;24368;52.156;20.788;2023-02-01T00:24:06;4.30;;;3.90;;
38611;SDS011;24368;52.156;20.788;2023-02-01T00:29:14;4.40;;;3.80;;
38611;SDS011;24368;52.156;20.788;2023-02-01T00:34:18;4.70;;;3.70;;
38611;SDS011;24368;52.156;20.788;2023-02-01T00:39:20;2.50;;;2.30;;
38611;SDS011;24368;52.156;20.788;2023-02-01T00:44:22;2.40;;;1.90;;
38611;SDS011;24368;52.156;20.788;2023-02-01T00:49:23;3.50;;;1.70;;
38611;SDS011;24368;52.156;20.788;2023-02-01T00:54:25;2.20;;;1.40;;
38611;SDS011;24368;52.156;20.788;2023-02-01T00:59:27;3.20;;;1.60;;
38611;SDS011;24368;52.156;20.788;2023-02-01T01:04:29;3.30;;;1.00;;
38611;SDS011;24368;52.156;20.788;2023-02-01T01:09:30;1.70;;;1.10;;
38611;SDS011;24368;52.156;20.788;2023-02-01T01:14:32;1.60;;;1.20;;
38611;SDS011;24368;52.156;20.788;2023-02-01T01:19:34;2.50;;;1.10;;
38611;SDS011;24368;52.156;20.788;2023-02-01T01:24:36;4.70;;;2.20;;
38611;SDS011;24368;52.156;20.788;2023-02-01T01:29:38;2.10;;;0.90;;
38611;SDS011;24368;52.156;20.788;2023-02-01T01:34:39;3.20;;;1.50;;
38611;SDS011;24368;52.156;20.788;2023-02-01T01:39:41;5.30;;;3.00;;
38611;SDS011;24368;52.156;20.788;2023-02-01T01:44:56;2.50;;;1.30;;
38611;SDS011;24368;52.156;20.788;2023-02-01T01:50:07;4.00;;;1.60;;
38611;SDS011;24368;52.156;20.788;2023-02-01T01:55:13;2.20;;;1.60;;
38611;SDS011;24368;52.156;20.788;2023-02-01T02:00:16;4.80;;;1.60;;
38611;SDS011;24368;52.156;20.788;2023-02-01T02:05:20;2.90;;;1.90;;
38611;SDS011;24368;52.156;20.788;2023-02-01T02:10:22;3.40;;;1.70;;
38611;SDS011;24368;52.156;20.788;2023-02-01T02:15:51;6.40;;;2.00;;
38611;SDS011;24368;52.156;20.788;2023-02-01T02:21:17;3.80;;;2.10;;
38611;SDS011;24368;52.156;20.788;2023-02-01T02:26:34;6.10;;;2.00;;
38611;SDS011;24368;52.156;20.788;2023-02-01T02:43:29;5.40;;;1.40;;
38611;SDS011;24368;52.156;20.788;2023-02-01T02:48:51;9.60;;;2.10;;
38611;SDS011;24368;52.156;20.788;2023-02-01T02:59:24;4.80;;;1.50;;
38611;SDS011;24368;52.156;20.788;2023-02-01T03:04:52;9.60;;;1.90;;
38611;SDS011;24368;52.156;20.788;2023-02-01T03:09:57;5.10;;;1.80;;
38611;SDS011;24368;52.156;20.788;2023-02-01T03:15:06;5.50;;;1.90;;
38611;SDS011;24368;52.156;20.788;2023-02-01T03:20:14;7.90;;;2.30;;
38611;SDS011;24368;52.156;20.788;2023-02-01T03:25:19;9.10;;;2.00;;
38611;SDS011;24368;52.156;20.788;2023-02-01T03:30:27;5.20;;;1.80;;
38611;SDS011;24368;52.156;20.788;2023-02-01T03:35:33;7.40;;;2.50;;
38611;SDS011;24368;52.156;20.788;2023-02-01T03:40:38;7.20;;;2.40;;
38611;SDS011;24368;52.156;20.788;2023-02-01T03:45:43;6.30;;;1.60;;
38611;SDS011;24368;52.156;20.788;2023-02-01T03:50:52;6.80;;;2.10;;
38611;SDS011;24368;52.156;20.788;2023-02-01T03:55:57;9.10;;;2.00;;
38611;SDS011;24368;52.156;20.788;2023-02-01T04:00:59;2.70;;;1.00;;
38611;SDS011;24368;52.156;20.788;2023-02-01T04:06:02;3.40;;;1.50;;
38611;SDS011;24368;52.156;20.788;2023-02-01T04:11:03;4.10;;;1.60;;
38611;SDS011;24368;52.156;20.788;2023-02-01T04:16:05;9.00;;;1.80;;
38611;SDS011;24368;52.156;20.788;2023-02-01T04:21:07;3.60;;;1.50;;
38611;SDS011;24368;52.156;20.788;2023-02-01T04:26:09;5.90;;;1.60;;
38611;SDS011;24368;52.156;20.788;2023-02-01T04:31:11;9.90;;;1.70;;
38611;SDS011;24368;52.156;20.788;2023-02-01T04:36:12;6.60;;;2.00;;
38611;SDS011;24368;52.156;20.788;2023-02-01T04:41:14;8.90;;;1.80;;
38611;SDS011;24368;52.156;20.788;2023-02-01T04:46:19;6.90;;;2.00;;
38611;SDS011;24368;52.156;20.788;2023-02-01T04:51:21;4.00;;;1.60;;
38611;SDS011;24368;52.156;20.788;2023-02-01T04:56:23;3.10;;;1.10;;
38611;SDS011;24368;52.156;20.788;2023-02-01T05:01:25;6.10;;;2.30;;
38611;SDS011;24368;52.156;20.788;2023-02-01T05:06:27;5.90;;;2.10;;
38611;SDS011;24368;52.156;20.788;2023-02-01T05:11:28;6.10;;;1.90;;
38611;SDS011;24368;52.156;20.788;2023-02-01T05:16:49;9.40;;;2.80;;
38611;SDS011;24368;52.156;20.788;2023-02-01T05:21:51;8.90;;;2.90;;
38611;SDS011;24368;52.156;20.788;2023-02-01T05:26:52;7.00;;;2.80;;
38611;SDS011;24368;52.156;20.788;2023-02-01T05:31:54;6.50;;;2.20;;
38611;SDS011;24368;52.156;20.788;2023-02-01T05:36:56;6.10;;;2.30;;
38611;SDS011;24368;52.156;20.788;2023-02-01T05:41:57;4.30;;;1.90;;
38611;SDS011;24368;52.156;20.788;2023-02-01T05:46:59;8.20;;;2.50;;
38611;SDS011;24368;52.156;20.788;2023-02-01T05:52:01;4.80;;;2.00;;
38611;SDS011;24368;52.156;20.788;2023-02-01T05:57:03;5.00;;;1.60;;
38611;SDS011;24368;52.156;20.788;2023-02-01T06:02:05;9.10;;;2.30;;
38611;SDS011;24368;52.156;20.788;2023-02-01T06:07:07;6.30;;;1.50;;
38611;SDS011;24368;52.156;20.788;2023-02-01T06:12:11;4.30;;;1.40;;
38611;SDS011;24368;52.156;20.788;2023-02-01T06:17:13;12.00;;;2.00;;
38611;SDS011;24368;52.156;20.788;2023-02-01T06:22:15;6.90;;;2.10;;
38611;SDS011;24368;52.156;20.788;2023-02-01T06:27:17;6.00;;;1.80;;
38611;SDS011;24368;52.156;20.788;2023-02-01T06:32:18;5.20;;;2.30;;
38611;SDS011;24368;52.156;20.788;2023-02-01T06:37:20;2.70;;;1.40;;
38611;SDS011;24368;52.156;20.788;2023-02-01T06:42:22;7.10;;;1.60;;
38611;SDS011;24368;52.156;20.788;2023-02-01T06:47:24;7.60;;;2.90;;
38611;SDS011;24368;52.156;20.788;2023-02-01T06:52:26;12.90;;;3.10;;
38611;SDS011;24368;52.156;20.788;2023-02-01T06:57:27;7.20;;;2.70;;
38611;SDS011;24368;52.156;20.788;2023-02-01T07:02:31;6.20;;;1.80;;
38611;SDS011;24368;52.156;20.788;2023-02-01T07:07:33;7.60;;;2.30;;
38611;SDS011;24368;52.156;20.788;2023-02-01T07:12:35;6.10;;;2.50;;
38611;SDS011;24368;52.156;20.788;2023-02-01T07:17:37;6.40;;;1.70;;
38611;SDS011;24368;52.156;20.788;2023-02-01T07:22:39;5.10;;;2.10;;
38611;SDS011;24368;52.156;20.788;2023-02-01T07:27:40;8.20;;;3.50;;
38611;SDS011;24368;52.156;20.788;2023-02-01T07:32:42;8.70;;;2.90;;
38611;SDS011;24368;52.156;20.788;2023-02-01T07:37:44;8.10;;;2.50;;
38611;SDS011;24368;52.156;20.788;2023-02-01T07:42:46;10.10;;;3.00;;
38611;SDS011;24368;52.156;20.788;2023-02-01T07:47:51;9.40;;;2.40;;
38611;SDS011;24368;52.156;20.788;2023-02-01T07:52:54;5.80;;;2.20;;
38611;SDS011;24368;52.156;20.788;2023-02-01T07:57:58;10.20;;;3.10;;
38611;SDS011;24368;52.156;20.788;2023-02-01T08:03:00;7.50;;;2.80;;
38611;SDS011;24368;52.156;20.788;2023-02-01T08:08:02;9.50;;;1.80;;
38611;SDS011;24368;52.156;20.788;2023-02-01T08:13:05;7.30;;;2.70;;
38611;SDS011;24368;52.156;20.788;2023-02-01T08:18:07;9.70;;;3.00;;
38611;SDS011;24368;52.156;20.788;2023-02-01T08:23:08;6.40;;;2.10;;
38611;SDS011;24368;52.156;20.788;2023-02-01T08:28:10;7.20;;;1.80;;
38611;SDS011;24368;52.156;20.788;2023-02-01T08:33:12;5.30;;;1.90;;
38611;SDS011;24368;52.156;20.788;2023-02-01T08:38:14;5.00;;;2.10;;
38611;SDS011;24368;52.156;20.788;2023-02-01T08:43:15;7.10;;;2.10;;
38611;SDS011;24368;52.156;20.788;2023-02-01T08:48:17;6.90;;;2.30;;
38611;SDS011;24368;52.156;20.788;2023-02-01T08:53:19;8.70;;;3.00;;
38611;SDS011;24368;52.156;20.788;2023-02-01T08:58:21;7.30;;;2.00;;
38611;SDS011;24368;52.156;20.788;2023-02-01T09:03:23;4.90;;;1.90;;
38611;SDS011;24368;52.156;20.788;2023-02-01T09:08:25;7.10;;;2.10;;
38611;SDS011;24368;52.156;20.788;2023-02-01T09:13:26;6.80;;;2.10;;
38611;SDS011;24368;52.156;20.788;2023-02-01T09:18:29;8.20;;;2.10;;
38611;SDS011;24368;52.156;20.788;2023-02-01T09:23:31;12.60;;;3.10;;
38611;SDS011;24368;52.156;20.788;2023-02-01T09:28:33;7.40;;;2.60;;
38611;SDS011;24368;52.156;20.788;2023-02-01T09:33:35;5.70;;;2.10;;
38611;SDS011;24368;52.156;20.788;2023-02-01T09:38:37;8.20;;;3.60;;
38611;SDS011;24368;52.156;20.788;2023-02-01T09:43:45;7.60;;;2.80;;
38611;SDS011;24368;52.156;20.788;2023-02-01T09:48:59;8.50;;;2.30;;
38611;SDS011;24368;52.156;20.788;2023-02-01T09:54:08;4.70;;;1.70;;
38611;SDS011;24368;52.156;20.788;2023-02-01T10:04:37;6.70;;;2.60;;
38611;SDS011;24368;52.156;20.788;2023-02-01T10:09:44;6.60;;;2.50;;
38611;SDS011;24368;52.156;20.788;2023-02-01T10:25:44;8.10;;;3.20;;
38611;SDS011;24368;52.156;20.788;2023-02-01T10:30:52;9.00;;;4.20;;
38611;SDS011;24368;52.156;20.788;2023-02-01T10:36:02;9.10;;;3.10;;
38611;SDS011;24368;52.156;20.788;2023-02-01T10:41:21;8.80;;;4.10;;
38611;SDS011;24368;52.156;20.788;2023-02-01T10:46:25;8.80;;;2.70;;
38611;SDS011;24368;52.156;20.788;2023-02-01T10:51:28;7.10;;;3.00;;
38611;SDS011;24368;52.156;20.788;2023-02-01T10:56:39;10.30;;;3.10;;
38611;SDS011;24368;52.156;20.788;2023-02-01T11:01:45;7.00;;;2.70;;
38611;SDS011;24368;52.156;20.788;2023-02-01T11:06:53;5.90;;;2.20;;
38611;SDS011;24368;52.156;20.788;2023-02-01T11:12:20;8.80;;;2.80;;
38611;SDS011;24368;52.156;20.788;2023-02-01T11:17:25;6.90;;;2.90;;
38611;SDS011;24368;52.156;20.788;2023-02-01T11:22:30;6.10;;;3.00;;
38611;SDS011;24368;52.156;20.788;2023-02-01T11:27:32;11.60;;;3.50;;
38611;SDS011;24368;52.156;20.788;2023-02-01T11:32:34;7.90;;;2.80;;
38611;SDS011;24368;52.156;20.788;2023-02-01T11:37:37;6.90;;;2.90;;
38611;SDS011;24368;52.156;20.788;2023-02-01T11:42:55;8.60;;;4.20;;
38611;SDS011;24368;52.156;20.788;2023-02-01T11:47:58;10.00;;;4.10;;
38611;SDS011;24368;52.156;20.788;2023-02-01T12:14:48;7.90;;;3.40;;
38611;SDS011;24368;52.156;20.788;2023-02-01T12:25:11;13.80;;;3.70;;
38611;SDS011;24368;52.156;20.788;2023-02-01T12:30:34;13.90;;;4.60;;
38611;SDS011;24368;52.156;20.788;2023-02-01T12:41:16;9.80;;;3.60;;
38611;SDS011;24368;52.156;20.788;2023-02-01T12:46:29;10.00;;;4.10;;
38611;SDS011;24368;52.156;20.788;2023-02-01T12:51:36;13.20;;;5.10;;
38611;SDS011;24368;52.156;20.788;2023-02-01T12:56:44;12.20;;;4.40;;
38611;SDS011;24368;52.156;20.788;2023-02-01T13:07:27;17.40;;;5.50;;
38611;SDS011;24368;52.156;20.788;2023-02-01T13:12:38;7.40;;;3.60;;
38611;SDS011;24368;52.156;20.788;2023-02-01T13:17:46;11.40;;;4.70;;
38611;SDS011;24368;52.156;20.788;2023-02-01T13:34:10;7.40;;;3.50;;
38611;SDS011;24368;52.156;20.788;2023-02-01T13:45:14;3.80;;;1.80;;
38611;SDS011;24368;52.156;20.788;2023-02-01T13:55:33;6.50;;;3.00;;
38611;SDS011;24368;52.156;20.788;2023-02-01T14:00:38;9.00;;;3.40;;
38611;SDS011;24368;52.156;20.788;2023-02-01T14:31:44;8.80;;;6.00;;
38611;SDS011;24368;52.156;20.788;2023-02-01T14:58:14;7.40;;;4.20;;
38611;SDS011;24368;52.156;20.788;2023-02-01T15:03:38;6.00;;;3.90;;
38611;SDS011;24368;52.156;20.788;2023-02-01T15:08:49;9.80;;;5.00;;
38611;SDS011;24368;52.156;20.788;2023-02-01T15:13:57;7.60;;;4.30;;
38611;SDS011;24368;52.156;20.788;2023-02-01T15:19:07;6.70;;;3.80;;
38611;SDS011;24368;52.156;20.788;2023-02-01T15:24:30;6.00;;;3.70;;
38611;SDS011;24368;52.156;20.788;2023-02-01T15:29:32;4.90;;;3.60;;
38611;SDS011;24368;52.156;20.788;2023-02-01T15:34:46;7.30;;;3.50;;
38611;SDS011;24368;52.156;20.788;2023-02-01T15:45:16;4.30;;;3.70;;
38611;SDS011;24368;52.156;20.788;2023-02-01T15:50:20;6.70;;;4.10;;
38611;SDS011;24368;52.156;20.788;2023-02-01T15:55:34;8.60;;;4.90;;
38611;SDS011;24368;52.156;20.788;2023-02-01T16:00:44;7.30;;;5.10;;
38611;SDS011;24368;52.156;20.788;2023-02-01T16:05:59;9.60;;;4.90;;
38611;SDS011;24368;52.156;20.788;2023-02-01T16:16:10;6.40;;;4.90;;
38611;SDS011;24368;52.156;20.788;2023-02-01T16:21:15;6.40;;;4.70;;
38611;SDS011;24368;52.156;20.788;2023-02-01T16:26:17;7.30;;;4.30;;
38611;SDS011;24368;52.156;20.788;2023-02-01T16:31:21;8.10;;;5.10;;
38611;SDS011;24368;52.156;20.788;2023-02-01T16:36:28;6.40;;;4.00;;
38611;SDS011;24368;52.156;20.788;2023-02-01T16:41:30;9.60;;;4.30;;
38611;SDS011;24368;52.156;20.788;2023-02-01T16:46:32;7.20;;;5.20;;
38611;SDS011;24368;52.156;20.788;2023-02-01T16:51:40;7.50;;;5.00;;
38611;SDS011;24368;52.156;20.788;2023-02-01T16:56:42;9.80;;;5.30;;
38611;SDS011;24368;52.156;20.788;2023-02-01T17:01:46;10.00;;;5.60;;
38611;SDS011;24368;52.156;20.788;2023-02-01T17:06:47;8.40;;;5.30;;
38611;SDS011;24368;52.156;20.788;2023-02-01T17:11:50;9.00;;;6.20;;
38611;SDS011;24368;52.156;20.788;2023-02-01T17:16:52;7.40;;;5.20;;
38611;SDS011;24368;52.156;20.788;2023-02-01T17:21:55;8.70;;;4.10;;
38611;SDS011;24368;52.156;20.788;2023-02-01T17:26:59;7.40;;;4.90;;
38611;SDS011;24368;52.156;20.788;2023-02-01T17:32:01;11.40;;;5.60;;
38611;SDS011;24368;52.156;20.788;2023-02-01T17:37:05;7.10;;;4.70;;
38611;SDS011;24368;52.156;20.788;2023-02-01T17:42:09;9.80;;;5.50;;
38611;SDS011;24368;52.156;20.788;2023-02-01T17:47:12;6.30;;;4.20;;
38611;SDS011;24368;52.156;20.788;2023-02-01T17:52:15;7.80;;;4.10;;
38611;SDS011;24368;52.156;20.788;2023-02-01T17:57:19;7.80;;;4.30;;
38611;SDS011;24368;52.156;20.788;2023-02-01T18:02:22;8.50;;;5.00;;
38611;SDS011;24368;52.156;20.788;2023-02-01T18:07:25;5.90;;;3.90;;
38611;SDS011;24368;52.156;20.788;2023-02-01T18:12:26;5.80;;;3.80;;
38611;SDS011;24368;52.156;20.788;2023-02-01T18:17:28;6.90;;;3.90;;
38611;SDS011;24368;52.156;20.788;2023-02-01T18:22:30;6.70;;;3.90;;
38611;SDS011;24368;52.156;20.788;2023-02-01T18:27:32;7.80;;;4.10;;
38611;SDS011;24368;52.156;20.788;2023-02-01T18:32:34;9.10;;;5.40;;
38611;SDS011;24368;52.156;20.788;2023-02-01T18:37:36;5.30;;;3.30;;
38611;SDS011;24368;52.156;20.788;2023-02-01T18:42:37;7.30;;;4.00;;
38611;SDS011;24368;52.156;20.788;2023-02-01T18:47:39;7.70;;;3.70;;
38611;SDS011;24368;52.156;20.788;2023-02-01T18:52:41;8.20;;;4.30;;
38611;SDS011;24368;52.156;20.788;2023-02-01T18:57:42;7.70;;;4.20;;
38611;SDS011;24368;52.156;20.788;2023-02-01T19:02:45;9.90;;;4.10;;
38611;SDS011;24368;52.156;20.788;2023-02-01T19:07:48;5.20;;;2.80;;
38611;SDS011;24368;52.156;20.788;2023-02-01T19:12:50;6.90;;;3.20;;
38611;SDS011;24368;52.156;20.788;2023-02-01T19:17:54;7.40;;;3.80;;
38611;SDS011;24368;52.156;20.788;2023-02-01T19:22:57;8.10;;;5.30;;
38611;SDS011;24368;52.156;20.788;2023-02-01T19:27:59;10.90;;;4.10;;
38611;SDS011;24368;52.156;20.788;2023-02-01T19:33:01;8.60;;;4.00;;
38611;SDS011;24368;52.156;20.788;2023-02-01T19:38:04;7.20;;;3.70;;
38611;SDS011;24368;52.156;20.788;2023-02-01T19:43:07;7.40;;;5.20;;
38611;SDS011;24368;52.156;20.788;2023-02-01T19:48:08;5.40;;;3.60;;
38611;SDS011;24368;52.156;20.788;2023-02-01T19:53:13;9.50;;;5.00;;
38611;SDS011;24368;52.156;20.788;2023-02-01T19:58:15;9.50;;;4.40;;
38611;SDS011;24368;52.156;20.788;2023-02-01T20:03:16;11.70;;;5.30;;
38611;SDS011;24368;52.156;20.788;2023-02-01T20:08:18;9.90;;;5.60;;
38611;SDS011;24368;52.156;20.788;2023-02-01T20:13:21;11.10;;;5.60;;
38611;SDS011;24368;52.156;20.788;2023-02-01T20:18:22;7.80;;;4.50;;
38611;SDS011;24368;52.156;20.788;2023-02-01T20:23:25;9.30;;;4.60;;
38611;SDS011;24368;52.156;20.788;2023-02-01T20:28:28;6.70;;;3.80;;
38611;SDS011;24368;52.156;20.788;2023-02-01T20:33:31;8.20;;;4.40;;
38611;SDS011;24368;52.156;20.788;2023-02-01T20:38:34;10.10;;;4.70;;
38611;SDS011;24368;52.156;20.788;2023-02-01T20:43:35;8.40;;;4.50;;
38611;SDS011;24368;52.156;20.788;2023-02-01T20:48:40;9.10;;;4.40;;
38611;SDS011;24368;52.156;20.788;2023-02-01T20:53:44;6.40;;;4.00;;
38611;SDS011;24368;52.156;20.788;2023-02-01T20:58:48;10.50;;;5.00;;
38611;SDS011;24368;52.156;20.788;2023-02-01T21:03:49;8.20;;;4.00;;
38611;SDS011;24368;52.156;20.788;2023-02-01T21:08:51;11.50;;;5.30;;
38611;SDS011;24368;52.156;20.788;2023-02-01T21:13:53;7.20;;;4.10;;
38611;SDS011;24368;52.156;20.788;2023-02-01T21:18:54;9.70;;;5.10;;
38611;SDS011;24368;52.156;20.788;2023-02-01T21:23:57;7.60;;;4.00;;
38611;SDS011;24368;52.156;20.788;2023-02-01T21:28:59;4.00;;;3.50;;
38611;SDS011;24368;52.156;20.788;2023-02-01T21:34:01;7.80;;;4.60;;
38611;SDS011;24368;52.156;20.788;2023-02-01T21:39:04;7.60;;;3.70;;
38611;SDS011;24368;52.156;20.788;2023-02-01T21:44:08;8.00;;;4.90;;
38611;SDS011;24368;52.156;20.788;2023-02-01T21:49:10;9.80;;;5.10;;
38611;SDS011;24368;52.156;20.788;2023-02-01T21:54:12;9.10;;;4.40;;
38611;SDS011;24368;52.156;20.788;2023-02-01T21:59:14;9.70;;;5.00;;
38611;SDS011;24368;52.156;20.788;2023-02-01T22:04:16;6.50;;;5.00;;
38611;SDS011;24368;52.156;20.788;2023-02-01T22:09:21;9.10;;;4.80;;
38611;SDS011;24368;52.156;20.788;2023-02-01T22:14:24;11.50;;;5.40;;
38611;SDS011;24368;52.156;20.788;2023-02-01T22:19:26;7.80;;;5.20;;
38611;SDS011;24368;52.156;20.788;2023-02-01T22:24:28;7.40;;;5.20;;
38611;SDS011;24368;52.156;20.788;2023-02-01T22:29:30;6.60;;;4.70;;
38611;SDS011;24368;52.156;20.788;2023-02-01T22:34:31;7.00;;;4.70;;
38611;SDS011;24368;52.156;20.788;2023-02-01T22:39:33;5.20;;;4.30;;
38611;SDS011;24368;52.156;20.788;2023-02-01T22:44:35;6.80;;;4.80;;
38611;SDS011;24368;52.156;20.788;2023-02-01T22:49:37;4.80;;;3.90;;
38611;SDS011;24368;52.156;20.788;2023-02-01T22:54:39;5.00;;;4.50;;
38611;SDS011;24368;52.156;20.788;2023-02-01T22:59:41;6.60;;;4.70;;
38611;SDS011;24368;52.156;20.788;2023-02-01T23:04:43;6.00;;;4.80;;
38611;SDS011;24368;52.156;20.788;2023-02-01T23:09:45;6.60;;;5.30;;
38611;SDS011;24368;52.156;20.788;2023-02-01T23:14:46;8.00;;;5.80;;
38611;SDS011;24368;52.156;20.788;2023-02-01T23:20:07;9.70;;;6.80;;
38611;SDS011;24368;52.156;20.788;2023-02-01T23:25:17;15.90;;;12.00;;
38611;SDS011;24368;52.156;20.788;2023-02-01T23:30:19;9.20;;;8.20;;
38611;SDS011;24368;52.156;20.788;2023-02-01T23:35:21;8.80;;;7.40;;
38611;SDS011;24368;52.156;20.788;2023-02-01T23:40:22;6.60;;;5.60;;
38611;SDS011;24368;52.156;20.788;2023-02-01T23:45:24;9.50;;;7.40;;
38611;SDS011;24368;52.156;20.788;2023-02-01T23:50:26;9.00;;;8.00;;
38611;SDS011;24368;52.156;20.788;2023-02-01T23:55:27;5.50;;;4.90;;
